<?xml version="1.0" encoding="UTF-8" standalone="no" ?>
<gpx xmlns="http://www.topografix.com/GPX/1/1" xmlns:xsi="http://www.w3.org/2001/XMLSchema-instance" xsi:schemaLocation="http://www.topografix.com/GPX/1/1 http://www.topografix.com/GPX/1/1/gpx.xsd" version="1.1" creator="VisuGPX - https://www.visugpx.com">
  <metadata>
    <name>2024-11-01-46-carnac-rouffiac</name>
    <desc><![CDATA[Randonnée de 10 km pour environ 300m de dénivelé positif, circuit sur des chemins ombragés et au milieu des vignes quelques anciens lavoirs et puits à voir]]></desc>
  </metadata>
  <trk>
    <name><![CDATA[carnac rouffiac 20/02/2023-16237492]]></name>
    <extensions>
      <line xmlns="http://www.topografix.com/GPX/gpx_style/0/2">
        <color>0000FF</color>
        <width>4</width>
      </line>
    </extensions>
    <trkseg>
      <trkpt lat="44.41521" lon="1.23374">
        <ele>245.5</ele>
        <time>2024-10-29T17:14:07Z</time>
      </trkpt>
      <trkpt lat="44.4151" lon="1.23398">
        <ele>247.4</ele>
      </trkpt>
      <trkpt lat="44.4149" lon="1.23356">
        <ele>244.1</ele>
      </trkpt>
      <trkpt lat="44.41473" lon="1.23302">
        <ele>238.6</ele>
        <time>2024-10-29T17:14:35Z</time>
      </trkpt>
      <trkpt lat="44.41458" lon="1.23265">
        <ele>235.6</ele>
        <time>2024-10-29T17:14:53Z</time>
      </trkpt>
      <trkpt lat="44.41431" lon="1.23228">
        <ele>233.3</ele>
      </trkpt>
      <trkpt lat="44.41404" lon="1.2318">
        <ele>229.3</ele>
      </trkpt>
      <trkpt lat="44.41397" lon="1.23168">
        <ele>228.3</ele>
      </trkpt>
      <trkpt lat="44.41384" lon="1.23171">
        <ele>227.8</ele>
      </trkpt>
      <trkpt lat="44.41373" lon="1.23142">
        <ele>225.6</ele>
      </trkpt>
      <trkpt lat="44.41367" lon="1.23106">
        <ele>223.7</ele>
        <time>2024-10-29T17:15:25Z</time>
      </trkpt>
      <trkpt lat="44.41354" lon="1.23118">
        <ele>223.3</ele>
      </trkpt>
      <trkpt lat="44.41344" lon="1.23135">
        <ele>223</ele>
      </trkpt>
      <trkpt lat="44.41337" lon="1.23145">
        <ele>222.4</ele>
        <time>2024-10-29T17:16:19Z</time>
      </trkpt>
      <trkpt lat="44.41331" lon="1.23139">
        <ele>221.6</ele>
        <time>2024-10-29T17:16:43Z</time>
      </trkpt>
      <trkpt lat="44.4132" lon="1.23144">
        <ele>219.7</ele>
        <time>2024-10-29T17:16:55Z</time>
      </trkpt>
      <trkpt lat="44.4125" lon="1.23145">
        <ele>216</ele>
        <time>2024-10-29T17:18:27Z</time>
      </trkpt>
      <trkpt lat="44.41237" lon="1.23138">
        <ele>217</ele>
        <time>2024-10-29T17:18:45Z</time>
      </trkpt>
      <trkpt lat="44.41224" lon="1.23122">
        <ele>217</ele>
        <time>2024-10-29T17:19:08Z</time>
      </trkpt>
      <trkpt lat="44.41225" lon="1.23096">
        <ele>217</ele>
        <time>2024-10-29T17:19:33Z</time>
      </trkpt>
      <trkpt lat="44.41233" lon="1.23076">
        <ele>212.6</ele>
      </trkpt>
      <trkpt lat="44.4125" lon="1.2306">
        <ele>210.5</ele>
        <time>2024-10-29T17:20:16Z</time>
      </trkpt>
      <trkpt lat="44.41271" lon="1.23036">
        <ele>207.7</ele>
      </trkpt>
      <trkpt lat="44.41275" lon="1.23029">
        <ele>206.8</ele>
      </trkpt>
      <trkpt lat="44.41271" lon="1.23018">
        <ele>207.6</ele>
      </trkpt>
      <trkpt lat="44.41266" lon="1.23002">
        <ele>209</ele>
      </trkpt>
      <trkpt lat="44.41266" lon="1.22976">
        <ele>209</ele>
        <time>2024-10-29T17:20:33Z</time>
      </trkpt>
      <trkpt lat="44.41269" lon="1.22951">
        <ele>208.7</ele>
        <time>2024-10-29T17:20:55Z</time>
      </trkpt>
      <trkpt lat="44.41266" lon="1.22932">
        <ele>209.3</ele>
        <time>2024-10-29T17:21:22Z</time>
      </trkpt>
      <trkpt lat="44.41257" lon="1.22917">
        <ele>211.6</ele>
      </trkpt>
      <trkpt lat="44.41243" lon="1.22903">
        <ele>212.6</ele>
      </trkpt>
      <trkpt lat="44.41214" lon="1.22883">
        <ele>213.6</ele>
      </trkpt>
      <trkpt lat="44.41181" lon="1.22848">
        <ele>213.2</ele>
        <time>2024-10-29T17:22:44Z</time>
      </trkpt>
      <trkpt lat="44.41167" lon="1.2283">
        <ele>214.5</ele>
        <time>2024-10-29T17:23:27Z</time>
      </trkpt>
      <trkpt lat="44.41155" lon="1.22794">
        <ele>213.3</ele>
        <time>2024-10-29T17:23:53Z</time>
      </trkpt>
      <trkpt lat="44.41146" lon="1.22782">
        <ele>214.2</ele>
        <time>2024-10-29T17:24:28Z</time>
      </trkpt>
      <trkpt lat="44.41134" lon="1.22775">
        <ele>215.2</ele>
        <time>2024-10-29T17:25:46Z</time>
      </trkpt>
      <trkpt lat="44.41116" lon="1.22771">
        <ele>216.2</ele>
        <time>2024-10-29T17:26:03Z</time>
      </trkpt>
      <trkpt lat="44.41099" lon="1.2277">
        <ele>216.8</ele>
        <time>2024-10-29T17:26:34Z</time>
      </trkpt>
      <trkpt lat="44.41068" lon="1.2277">
        <ele>218.1</ele>
        <time>2024-10-29T17:27:41Z</time>
      </trkpt>
      <trkpt lat="44.41058" lon="1.22759">
        <ele>218.2</ele>
        <time>2024-10-29T17:27:58Z</time>
      </trkpt>
      <trkpt lat="44.41043" lon="1.22723">
        <ele>217.9</ele>
      </trkpt>
      <trkpt lat="44.41034" lon="1.22709">
        <ele>219.4</ele>
        <time>2024-10-29T17:29:42Z</time>
      </trkpt>
      <trkpt lat="44.41015" lon="1.22676">
        <ele>223.2</ele>
        <time>2024-10-29T17:30:41Z</time>
      </trkpt>
      <trkpt lat="44.41004" lon="1.22659">
        <ele>226.2</ele>
        <time>2024-10-29T17:30:53Z</time>
      </trkpt>
      <trkpt lat="44.40992" lon="1.2263">
        <ele>231</ele>
        <time>2024-10-29T17:31:05Z</time>
      </trkpt>
      <trkpt lat="44.40985" lon="1.22611">
        <ele>234.1</ele>
        <time>2024-10-29T17:31:39Z</time>
      </trkpt>
      <trkpt lat="44.40977" lon="1.22612">
        <ele>239</ele>
        <time>2024-10-29T17:31:51Z</time>
      </trkpt>
      <trkpt lat="44.4097" lon="1.2261">
        <ele>241</ele>
        <time>2024-10-29T17:32:01Z</time>
      </trkpt>
      <trkpt lat="44.40945" lon="1.22624">
        <ele>240.7</ele>
        <time>2024-10-29T17:32:40Z</time>
      </trkpt>
      <trkpt lat="44.40942" lon="1.22623">
        <ele>241.3</ele>
        <time>2024-10-29T17:32:48Z</time>
      </trkpt>
      <trkpt lat="44.40938" lon="1.22623">
        <ele>241.3</ele>
      </trkpt>
      <trkpt lat="44.40889" lon="1.22571">
        <ele>253</ele>
        <time>2024-10-29T17:34:13Z</time>
      </trkpt>
      <trkpt lat="44.40831" lon="1.22525">
        <ele>259</ele>
        <time>2024-10-29T17:35:42Z</time>
      </trkpt>
      <trkpt lat="44.40746" lon="1.22361">
        <ele>258</ele>
        <time>2024-10-29T17:38:55Z</time>
      </trkpt>
      <trkpt lat="44.40725" lon="1.22328">
        <ele>258</ele>
        <time>2024-10-29T17:39:37Z</time>
      </trkpt>
      <trkpt lat="44.40706" lon="1.2231">
        <ele>258</ele>
        <time>2024-10-29T17:40:08Z</time>
      </trkpt>
      <trkpt lat="44.40642" lon="1.2216">
        <ele>265</ele>
        <time>2024-10-29T17:42:54Z</time>
      </trkpt>
      <trkpt lat="44.40564" lon="1.2201">
        <ele>274</ele>
        <time>2024-10-29T17:45:51Z</time>
      </trkpt>
      <trkpt lat="44.40542" lon="1.21959">
        <ele>275</ele>
        <time>2024-10-29T17:46:48Z</time>
      </trkpt>
      <trkpt lat="44.4051" lon="1.21914">
        <ele>276</ele>
        <time>2024-10-29T17:47:49Z</time>
      </trkpt>
      <trkpt lat="44.40506" lon="1.21902">
        <ele>277</ele>
        <time>2024-10-29T17:48:01Z</time>
      </trkpt>
      <trkpt lat="44.4051" lon="1.21876">
        <ele>276</ele>
        <time>2024-10-29T17:48:27Z</time>
      </trkpt>
      <trkpt lat="44.40553" lon="1.2178">
        <ele>275</ele>
        <time>2024-10-29T17:50:15Z</time>
      </trkpt>
      <trkpt lat="44.40554" lon="1.21762">
        <ele>275</ele>
        <time>2024-10-29T17:50:32Z</time>
      </trkpt>
      <trkpt lat="44.40512" lon="1.21677">
        <ele>277</ele>
        <time>2024-10-29T17:52:10Z</time>
      </trkpt>
      <trkpt lat="44.40491" lon="1.21622">
        <ele>276</ele>
        <time>2024-10-29T17:53:10Z</time>
      </trkpt>
      <trkpt lat="44.40488" lon="1.21585">
        <ele>276</ele>
        <time>2024-10-29T17:53:45Z</time>
      </trkpt>
      <trkpt lat="44.40492" lon="1.21543">
        <ele>276</ele>
        <time>2024-10-29T17:54:26Z</time>
      </trkpt>
      <trkpt lat="44.40488" lon="1.21491">
        <ele>276</ele>
        <time>2024-10-29T17:55:16Z</time>
      </trkpt>
      <trkpt lat="44.40472" lon="1.21475">
        <ele>275</ele>
        <time>2024-10-29T17:55:42Z</time>
      </trkpt>
      <trkpt lat="44.40417" lon="1.2144">
        <ele>271</ele>
        <time>2024-10-29T17:57:03Z</time>
      </trkpt>
      <trkpt lat="44.40418" lon="1.21433">
        <ele>271</ele>
        <time>2024-10-29T17:57:09Z</time>
      </trkpt>
      <trkpt lat="44.40445" lon="1.21385">
        <ele>268</ele>
        <time>2024-10-29T17:58:08Z</time>
      </trkpt>
      <trkpt lat="44.40485" lon="1.21348">
        <ele>268</ele>
        <time>2024-10-29T17:59:12Z</time>
      </trkpt>
      <trkpt lat="44.40492" lon="1.21333">
        <ele>267</ele>
        <time>2024-10-29T17:59:29Z</time>
      </trkpt>
      <trkpt lat="44.40499" lon="1.21294">
        <ele>265</ele>
        <time>2024-10-29T18:00:07Z</time>
      </trkpt>
      <trkpt lat="44.40527" lon="1.21234">
        <ele>265</ele>
        <time>2024-10-29T18:01:15Z</time>
      </trkpt>
      <trkpt lat="44.40583" lon="1.21176">
        <ele>269</ele>
        <time>2024-10-29T18:02:48Z</time>
      </trkpt>
      <trkpt lat="44.40648" lon="1.21085">
        <ele>266</ele>
        <time>2024-10-29T18:04:51Z</time>
      </trkpt>
      <trkpt lat="44.40712" lon="1.20943">
        <ele>262</ele>
        <time>2024-10-29T18:07:31Z</time>
      </trkpt>
      <trkpt lat="44.40741" lon="1.20864">
        <ele>263</ele>
        <time>2024-10-29T18:08:56Z</time>
      </trkpt>
      <trkpt lat="44.40761" lon="1.20832">
        <ele>264</ele>
        <time>2024-10-29T18:09:36Z</time>
      </trkpt>
      <trkpt lat="44.40815" lon="1.20768">
        <ele>266</ele>
        <time>2024-10-29T18:11:11Z</time>
      </trkpt>
      <trkpt lat="44.40831" lon="1.20702">
        <ele>264</ele>
        <time>2024-10-29T18:12:17Z</time>
      </trkpt>
      <trkpt lat="44.40835" lon="1.20688">
        <ele>262.6</ele>
        <time>2024-10-29T18:12:45Z</time>
      </trkpt>
      <trkpt lat="44.40836" lon="1.20681">
        <ele>262.2</ele>
        <time>2024-10-29T18:13:46Z</time>
      </trkpt>
      <trkpt lat="44.40837" lon="1.20676">
        <ele>261.9</ele>
        <time>2024-10-29T18:13:50Z</time>
      </trkpt>
      <trkpt lat="44.40839" lon="1.20671">
        <ele>261.7</ele>
        <time>2024-10-29T18:13:59Z</time>
      </trkpt>
      <trkpt lat="44.40839" lon="1.20665">
        <ele>261.3</ele>
        <time>2024-10-29T18:14:16Z</time>
      </trkpt>
      <trkpt lat="44.40841" lon="1.20663">
        <ele>261.3</ele>
        <time>2024-10-29T18:14:31Z</time>
      </trkpt>
      <trkpt lat="44.40841" lon="1.20661">
        <ele>261.1</ele>
        <time>2024-10-29T18:14:47Z</time>
      </trkpt>
      <trkpt lat="44.40842" lon="1.20657">
        <ele>260.9</ele>
      </trkpt>
      <trkpt lat="44.40842" lon="1.20653">
        <ele>260.6</ele>
      </trkpt>
      <trkpt lat="44.40843" lon="1.20649">
        <ele>260.5</ele>
        <time>2024-10-29T18:15:06Z</time>
      </trkpt>
      <trkpt lat="44.40845" lon="1.20645">
        <ele>260.2</ele>
        <time>2024-10-29T18:15:27Z</time>
      </trkpt>
      <trkpt lat="44.40847" lon="1.20635">
        <ele>259.8</ele>
        <time>2024-10-29T18:15:33Z</time>
      </trkpt>
      <trkpt lat="44.40848" lon="1.20629">
        <ele>259.5</ele>
        <time>2024-10-29T18:15:47Z</time>
      </trkpt>
      <trkpt lat="44.40846" lon="1.20624">
        <ele>259.1</ele>
        <time>2024-10-29T18:15:57Z</time>
      </trkpt>
      <trkpt lat="44.40842" lon="1.20621">
        <ele>258.5</ele>
        <time>2024-10-29T18:16:13Z</time>
      </trkpt>
      <trkpt lat="44.40838" lon="1.20616">
        <ele>257.8</ele>
      </trkpt>
      <trkpt lat="44.40837" lon="1.20614">
        <ele>257.5</ele>
        <time>2024-10-29T18:16:40Z</time>
      </trkpt>
      <trkpt lat="44.40833" lon="1.20612">
        <ele>257.1</ele>
        <time>2024-10-29T18:16:51Z</time>
      </trkpt>
      <trkpt lat="44.40831" lon="1.20611">
        <ele>256.9</ele>
      </trkpt>
      <trkpt lat="44.40828" lon="1.20607">
        <ele>256.5</ele>
      </trkpt>
      <trkpt lat="44.40825" lon="1.20604">
        <ele>256.3</ele>
        <time>2024-10-29T18:17:03Z</time>
      </trkpt>
      <trkpt lat="44.40823" lon="1.20601">
        <ele>256</ele>
        <time>2024-10-29T18:17:51Z</time>
      </trkpt>
      <trkpt lat="44.40822" lon="1.20597">
        <ele>255.8</ele>
      </trkpt>
      <trkpt lat="44.40823" lon="1.20593">
        <ele>255.5</ele>
        <time>2024-10-29T18:18:04Z</time>
      </trkpt>
      <trkpt lat="44.40834" lon="1.20514">
        <ele>253</ele>
        <time>2024-10-29T18:19:22Z</time>
      </trkpt>
      <trkpt lat="44.40836" lon="1.20471">
        <ele>245</ele>
        <time>2024-10-29T18:19:58Z</time>
      </trkpt>
      <trkpt lat="44.40841" lon="1.20371">
        <ele>243.1</ele>
        <time>2024-10-29T18:21:29Z</time>
      </trkpt>
      <trkpt lat="44.40857" lon="1.20297">
        <ele>236.9</ele>
        <time>2024-10-29T18:22:46Z</time>
      </trkpt>
      <trkpt lat="44.40868" lon="1.20288">
        <ele>235</ele>
      </trkpt>
      <trkpt lat="44.40877" lon="1.20271">
        <ele>238</ele>
        <time>2024-10-29T18:23:25Z</time>
      </trkpt>
      <trkpt lat="44.40891" lon="1.20182">
        <ele>230</ele>
        <time>2024-10-29T18:24:52Z</time>
      </trkpt>
      <trkpt lat="44.40891" lon="1.20141">
        <ele>229</ele>
        <time>2024-10-29T18:25:31Z</time>
      </trkpt>
      <trkpt lat="44.40879" lon="1.20103">
        <ele>227</ele>
        <time>2024-10-29T18:26:11Z</time>
      </trkpt>
      <trkpt lat="44.40904" lon="1.20078">
        <ele>228</ele>
        <time>2024-10-29T18:26:52Z</time>
      </trkpt>
      <trkpt lat="44.4093" lon="1.20036">
        <ele>229</ele>
        <time>2024-10-29T18:27:45Z</time>
      </trkpt>
      <trkpt lat="44.40949" lon="1.19994">
        <ele>228</ele>
        <time>2024-10-29T18:28:32Z</time>
      </trkpt>
      <trkpt lat="44.40981" lon="1.19976">
        <ele>227</ele>
        <time>2024-10-29T18:29:18Z</time>
      </trkpt>
      <trkpt lat="44.41003" lon="1.19956">
        <ele>225</ele>
        <time>2024-10-29T18:29:53Z</time>
      </trkpt>
      <trkpt lat="44.41017" lon="1.19932">
        <ele>226</ele>
        <time>2024-10-29T18:30:23Z</time>
      </trkpt>
      <trkpt lat="44.41089" lon="1.19851">
        <ele>225</ele>
        <time>2024-10-29T18:32:26Z</time>
      </trkpt>
      <trkpt lat="44.41103" lon="1.19847">
        <ele>223</ele>
        <time>2024-10-29T18:32:45Z</time>
      </trkpt>
      <trkpt lat="44.41108" lon="1.1984">
        <ele>222</ele>
        <time>2024-10-29T18:32:55Z</time>
      </trkpt>
      <trkpt lat="44.41135" lon="1.19844">
        <ele>220</ele>
        <time>2024-10-29T18:33:31Z</time>
      </trkpt>
      <trkpt lat="44.41159" lon="1.19864">
        <ele>222</ele>
        <time>2024-10-29T18:34:08Z</time>
      </trkpt>
      <trkpt lat="44.41209" lon="1.19893">
        <ele>217</ele>
        <time>2024-10-29T18:35:20Z</time>
      </trkpt>
      <trkpt lat="44.4122" lon="1.19905">
        <ele>216</ele>
        <time>2024-10-29T18:35:39Z</time>
      </trkpt>
      <trkpt lat="44.41227" lon="1.1992">
        <ele>215.1</ele>
        <time>2024-10-29T18:36:09Z</time>
      </trkpt>
      <trkpt lat="44.41234" lon="1.19932">
        <ele>214.2</ele>
        <time>2024-10-29T18:36:46Z</time>
      </trkpt>
      <trkpt lat="44.41236" lon="1.19936">
        <ele>213.8</ele>
        <time>2024-10-29T18:37:04Z</time>
      </trkpt>
      <trkpt lat="44.41238" lon="1.19939">
        <ele>213.3</ele>
        <time>2024-10-29T18:37:30Z</time>
      </trkpt>
      <trkpt lat="44.41247" lon="1.1995">
        <ele>210.7</ele>
      </trkpt>
      <trkpt lat="44.41255" lon="1.19955">
        <ele>209.2</ele>
        <time>2024-10-29T18:38:13Z</time>
      </trkpt>
      <trkpt lat="44.4127" lon="1.19961">
        <ele>208</ele>
        <time>2024-10-29T18:38:39Z</time>
      </trkpt>
      <trkpt lat="44.41287" lon="1.1995">
        <ele>207</ele>
        <time>2024-10-29T18:39:04Z</time>
      </trkpt>
      <trkpt lat="44.41305" lon="1.19909">
        <ele>208</ele>
        <time>2024-10-29T18:39:50Z</time>
      </trkpt>
      <trkpt lat="44.41341" lon="1.19867">
        <ele>205</ele>
        <time>2024-10-29T18:40:52Z</time>
      </trkpt>
      <trkpt lat="44.41352" lon="1.19848">
        <ele>203.5</ele>
        <time>2024-10-29T18:41:12Z</time>
      </trkpt>
      <trkpt lat="44.41372" lon="1.19828">
        <ele>202.5</ele>
        <time>2024-10-29T18:41:32Z</time>
      </trkpt>
      <trkpt lat="44.41415" lon="1.19797">
        <ele>200</ele>
        <time>2024-10-29T18:42:57Z</time>
      </trkpt>
      <trkpt lat="44.41438" lon="1.19774">
        <ele>198</ele>
        <time>2024-10-29T18:43:35Z</time>
      </trkpt>
      <trkpt lat="44.41448" lon="1.19777">
        <ele>198</ele>
        <time>2024-10-29T18:43:49Z</time>
      </trkpt>
      <trkpt lat="44.41457" lon="1.19771">
        <ele>197</ele>
        <time>2024-10-29T18:44:02Z</time>
      </trkpt>
      <trkpt lat="44.41491" lon="1.19705">
        <ele>192</ele>
        <time>2024-10-29T18:45:20Z</time>
      </trkpt>
      <trkpt lat="44.41489" lon="1.19688">
        <ele>191</ele>
        <time>2024-10-29T18:45:36Z</time>
      </trkpt>
      <trkpt lat="44.41478" lon="1.19674">
        <ele>191</ele>
        <time>2024-10-29T18:45:56Z</time>
      </trkpt>
      <trkpt lat="44.4148" lon="1.19664">
        <ele>190</ele>
        <time>2024-10-29T18:46:06Z</time>
      </trkpt>
      <trkpt lat="44.41495" lon="1.19659">
        <ele>189</ele>
        <time>2024-10-29T18:46:26Z</time>
      </trkpt>
      <trkpt lat="44.41512" lon="1.19665">
        <ele>188</ele>
        <time>2024-10-29T18:46:50Z</time>
      </trkpt>
      <trkpt lat="44.41535" lon="1.1968">
        <ele>187</ele>
        <time>2024-10-29T18:47:24Z</time>
      </trkpt>
      <trkpt lat="44.41553" lon="1.19684">
        <ele>186</ele>
        <time>2024-10-29T18:47:48Z</time>
      </trkpt>
      <trkpt lat="44.41634" lon="1.19643">
        <ele>184</ele>
        <time>2024-10-29T18:49:43Z</time>
      </trkpt>
      <trkpt lat="44.4166" lon="1.19659">
        <ele>184</ele>
        <time>2024-10-29T18:50:21Z</time>
      </trkpt>
      <trkpt lat="44.417" lon="1.19673">
        <ele>189</ele>
        <time>2024-10-29T18:51:16Z</time>
      </trkpt>
      <trkpt lat="44.41712" lon="1.19685">
        <ele>187.5</ele>
      </trkpt>
      <trkpt lat="44.41715" lon="1.19688">
        <ele>188</ele>
        <time>2024-10-29T18:51:39Z</time>
      </trkpt>
      <trkpt lat="44.41726" lon="1.19697">
        <ele>189.7</ele>
      </trkpt>
      <trkpt lat="44.41741" lon="1.19705">
        <ele>192.2</ele>
        <time>2024-10-29T18:52:47Z</time>
      </trkpt>
      <trkpt lat="44.41754" lon="1.19712">
        <ele>194.3</ele>
        <time>2024-10-29T18:52:59Z</time>
      </trkpt>
      <trkpt lat="44.41767" lon="1.19723">
        <ele>196.5</ele>
        <time>2024-10-29T18:53:13Z</time>
      </trkpt>
      <trkpt lat="44.41776" lon="1.19726">
        <ele>198</ele>
      </trkpt>
      <trkpt lat="44.4178" lon="1.19725">
        <ele>198.6</ele>
        <time>2024-10-29T18:53:58Z</time>
      </trkpt>
      <trkpt lat="44.41787" lon="1.19726">
        <ele>199.5</ele>
        <time>2024-10-29T18:54:19Z</time>
      </trkpt>
      <trkpt lat="44.41795" lon="1.19731">
        <ele>202</ele>
        <time>2024-10-29T18:54:42Z</time>
      </trkpt>
      <trkpt lat="44.41801" lon="1.19745">
        <ele>204</ele>
        <time>2024-10-29T18:54:58Z</time>
      </trkpt>
      <trkpt lat="44.41817" lon="1.19768">
        <ele>206.2</ele>
        <time>2024-10-29T18:55:35Z</time>
      </trkpt>
      <trkpt lat="44.41826" lon="1.19806">
        <ele>210.5</ele>
        <time>2024-10-29T18:56:01Z</time>
      </trkpt>
      <trkpt lat="44.41833" lon="1.19819">
        <ele>212.3</ele>
        <time>2024-10-29T18:56:50Z</time>
      </trkpt>
      <trkpt lat="44.41838" lon="1.1984">
        <ele>215.3</ele>
      </trkpt>
      <trkpt lat="44.41846" lon="1.19866">
        <ele>219.3</ele>
        <time>2024-10-29T18:58:05Z</time>
      </trkpt>
      <trkpt lat="44.41853" lon="1.19893">
        <ele>223.3</ele>
      </trkpt>
      <trkpt lat="44.41862" lon="1.19912">
        <ele>226.7</ele>
        <time>2024-10-29T18:58:19Z</time>
      </trkpt>
      <trkpt lat="44.4187" lon="1.19934">
        <ele>230.1</ele>
        <time>2024-10-29T18:59:16Z</time>
      </trkpt>
      <trkpt lat="44.4188" lon="1.19955">
        <ele>233.8</ele>
        <time>2024-10-29T18:59:43Z</time>
      </trkpt>
      <trkpt lat="44.41888" lon="1.19987">
        <ele>238.4</ele>
        <time>2024-10-29T19:00:33Z</time>
      </trkpt>
      <trkpt lat="44.41923" lon="1.20086">
        <ele>250.3</ele>
        <time>2024-10-29T19:01:16Z</time>
      </trkpt>
      <trkpt lat="44.41979" lon="1.20059">
        <ele>251.9</ele>
        <time>2024-10-29T19:02:02Z</time>
      </trkpt>
      <trkpt lat="44.42024" lon="1.2004">
        <ele>252.6</ele>
        <time>2024-10-29T19:02:24Z</time>
      </trkpt>
      <trkpt lat="44.42103" lon="1.20003">
        <ele>254.1</ele>
        <time>2024-10-29T19:02:47Z</time>
      </trkpt>
      <trkpt lat="44.42147" lon="1.19978">
        <ele>253.3</ele>
        <time>2024-10-29T19:03:49Z</time>
      </trkpt>
      <trkpt lat="44.42174" lon="1.19961">
        <ele>251.9</ele>
      </trkpt>
      <trkpt lat="44.42199" lon="1.1994">
        <ele>250.7</ele>
        <time>2024-10-29T19:04:05Z</time>
      </trkpt>
      <trkpt lat="44.42229" lon="1.19921">
        <ele>247.8</ele>
      </trkpt>
      <trkpt lat="44.42244" lon="1.19913">
        <ele>246.2</ele>
        <time>2024-10-29T19:05:05Z</time>
      </trkpt>
      <trkpt lat="44.42265" lon="1.19907">
        <ele>244.3</ele>
      </trkpt>
      <trkpt lat="44.42272" lon="1.19899">
        <ele>243.6</ele>
        <time>2024-10-29T19:06:15Z</time>
      </trkpt>
      <trkpt lat="44.42285" lon="1.19892">
        <ele>241</ele>
        <time>2024-10-29T19:06:57Z</time>
      </trkpt>
      <trkpt lat="44.4233" lon="1.1987">
        <ele>236</ele>
        <time>2024-10-29T19:08:01Z</time>
      </trkpt>
      <trkpt lat="44.42336" lon="1.1986">
        <ele>235</ele>
        <time>2024-10-29T19:08:13Z</time>
      </trkpt>
      <trkpt lat="44.42358" lon="1.19844">
        <ele>234</ele>
        <time>2024-10-29T19:08:46Z</time>
      </trkpt>
      <trkpt lat="44.4242" lon="1.1978">
        <ele>234</ele>
        <time>2024-10-29T19:10:29Z</time>
      </trkpt>
      <trkpt lat="44.42441" lon="1.19765">
        <ele>235</ele>
        <time>2024-10-29T19:11:01Z</time>
      </trkpt>
      <trkpt lat="44.42464" lon="1.19739">
        <ele>238</ele>
        <time>2024-10-29T19:11:40Z</time>
      </trkpt>
      <trkpt lat="44.42481" lon="1.19726">
        <ele>240</ele>
        <time>2024-10-29T19:12:06Z</time>
      </trkpt>
      <trkpt lat="44.4256" lon="1.19782">
        <ele>242</ele>
        <time>2024-10-29T19:14:04Z</time>
      </trkpt>
      <trkpt lat="44.42567" lon="1.19791">
        <ele>241</ele>
        <time>2024-10-29T19:14:17Z</time>
      </trkpt>
      <trkpt lat="44.42575" lon="1.19822">
        <ele>237</ele>
        <time>2024-10-29T19:14:48Z</time>
      </trkpt>
      <trkpt lat="44.42567" lon="1.19877">
        <ele>234</ele>
        <time>2024-10-29T19:15:42Z</time>
      </trkpt>
      <trkpt lat="44.42558" lon="1.19888">
        <ele>233</ele>
        <time>2024-10-29T19:15:58Z</time>
      </trkpt>
      <trkpt lat="44.42557" lon="1.19896">
        <ele>233</ele>
        <time>2024-10-29T19:16:05Z</time>
      </trkpt>
      <trkpt lat="44.42559" lon="1.19903">
        <ele>233</ele>
        <time>2024-10-29T19:16:13Z</time>
      </trkpt>
      <trkpt lat="44.42566" lon="1.19893">
        <ele>233</ele>
        <time>2024-10-29T19:16:26Z</time>
      </trkpt>
      <trkpt lat="44.42577" lon="1.199">
        <ele>233</ele>
        <time>2024-10-29T19:16:42Z</time>
      </trkpt>
      <trkpt lat="44.42556" lon="1.19889">
        <ele>233</ele>
        <time>2024-10-29T19:17:12Z</time>
      </trkpt>
      <trkpt lat="44.42497" lon="1.19941">
        <ele>229</ele>
        <time>2024-10-29T19:18:45Z</time>
      </trkpt>
      <trkpt lat="44.42488" lon="1.19958">
        <ele>228</ele>
        <time>2024-10-29T19:19:05Z</time>
      </trkpt>
      <trkpt lat="44.42487" lon="1.19988">
        <ele>225</ele>
        <time>2024-10-29T19:19:34Z</time>
      </trkpt>
      <trkpt lat="44.42466" lon="1.20012">
        <ele>224</ele>
        <time>2024-10-29T19:20:10Z</time>
      </trkpt>
      <trkpt lat="44.42451" lon="1.20057">
        <ele>222</ele>
        <time>2024-10-29T19:20:57Z</time>
      </trkpt>
      <trkpt lat="44.42458" lon="1.20093">
        <ele>219</ele>
        <time>2024-10-29T19:21:33Z</time>
      </trkpt>
      <trkpt lat="44.42455" lon="1.20099">
        <ele>219</ele>
        <time>2024-10-29T19:21:40Z</time>
      </trkpt>
      <trkpt lat="44.4246" lon="1.201">
        <ele>219</ele>
        <time>2024-10-29T19:21:47Z</time>
      </trkpt>
      <trkpt lat="44.42465" lon="1.2011">
        <ele>217</ele>
        <time>2024-10-29T19:21:58Z</time>
      </trkpt>
      <trkpt lat="44.42466" lon="1.2013">
        <ele>216</ele>
        <time>2024-10-29T19:22:17Z</time>
      </trkpt>
      <trkpt lat="44.42471" lon="1.20129">
        <ele>215</ele>
        <time>2024-10-29T19:22:24Z</time>
      </trkpt>
      <trkpt lat="44.42475" lon="1.20145">
        <ele>213</ele>
        <time>2024-10-29T19:22:40Z</time>
      </trkpt>
      <trkpt lat="44.42466" lon="1.20127">
        <ele>216</ele>
        <time>2024-10-29T19:23:01Z</time>
      </trkpt>
      <trkpt lat="44.42464" lon="1.20141">
        <ele>215</ele>
        <time>2024-10-29T19:23:15Z</time>
      </trkpt>
      <trkpt lat="44.42453" lon="1.20164">
        <ele>215</ele>
        <time>2024-10-29T19:23:41Z</time>
      </trkpt>
      <trkpt lat="44.42401" lon="1.20209">
        <ele>214</ele>
        <time>2024-10-29T19:25:03Z</time>
      </trkpt>
      <trkpt lat="44.42371" lon="1.20252">
        <ele>209</ele>
        <time>2024-10-29T19:26:00Z</time>
      </trkpt>
      <trkpt lat="44.42342" lon="1.20282">
        <ele>205</ele>
        <time>2024-10-29T19:26:48Z</time>
      </trkpt>
      <trkpt lat="44.42305" lon="1.20306">
        <ele>202</ele>
        <time>2024-10-29T19:27:43Z</time>
      </trkpt>
      <trkpt lat="44.42286" lon="1.20312">
        <ele>202</ele>
        <time>2024-10-29T19:28:09Z</time>
      </trkpt>
      <trkpt lat="44.4228" lon="1.20361">
        <ele>199</ele>
        <time>2024-10-29T19:28:56Z</time>
      </trkpt>
      <trkpt lat="44.42233" lon="1.20419">
        <ele>202</ele>
        <time>2024-10-29T19:30:20Z</time>
      </trkpt>
      <trkpt lat="44.42216" lon="1.20477">
        <ele>208</ele>
        <time>2024-10-29T19:31:19Z</time>
      </trkpt>
      <trkpt lat="44.42211" lon="1.20516">
        <ele>212</ele>
        <time>2024-10-29T19:31:57Z</time>
      </trkpt>
      <trkpt lat="44.42216" lon="1.20656">
        <ele>230</ele>
        <time>2024-10-29T19:34:11Z</time>
      </trkpt>
      <trkpt lat="44.42203" lon="1.20712">
        <ele>236</ele>
        <time>2024-10-29T19:35:07Z</time>
      </trkpt>
      <trkpt lat="44.42188" lon="1.20742">
        <ele>240</ele>
        <time>2024-10-29T19:35:42Z</time>
      </trkpt>
      <trkpt lat="44.42159" lon="1.20775">
        <ele>241</ele>
        <time>2024-10-29T19:36:32Z</time>
      </trkpt>
      <trkpt lat="44.42126" lon="1.20795">
        <ele>239</ele>
        <time>2024-10-29T19:37:20Z</time>
      </trkpt>
      <trkpt lat="44.42103" lon="1.20839">
        <ele>241</ele>
        <time>2024-10-29T19:38:12Z</time>
      </trkpt>
      <trkpt lat="44.42098" lon="1.20869">
        <ele>241</ele>
        <time>2024-10-29T19:38:41Z</time>
      </trkpt>
      <trkpt lat="44.42038" lon="1.20957">
        <ele>238</ele>
        <time>2024-10-29T19:40:37Z</time>
      </trkpt>
      <trkpt lat="44.41992" lon="1.21">
        <ele>240</ele>
        <time>2024-10-29T19:41:51Z</time>
      </trkpt>
      <trkpt lat="44.4195" lon="1.21016">
        <ele>243</ele>
        <time>2024-10-29T19:42:49Z</time>
      </trkpt>
      <trkpt lat="44.41942" lon="1.21024">
        <ele>244</ele>
        <time>2024-10-29T19:43:02Z</time>
      </trkpt>
      <trkpt lat="44.41913" lon="1.2103">
        <ele>245</ele>
        <time>2024-10-29T19:43:41Z</time>
      </trkpt>
      <trkpt lat="44.41897" lon="1.21038">
        <ele>245</ele>
        <time>2024-10-29T19:44:04Z</time>
      </trkpt>
      <trkpt lat="44.41895" lon="1.21047">
        <ele>245</ele>
        <time>2024-10-29T19:44:13Z</time>
      </trkpt>
      <trkpt lat="44.41872" lon="1.21064">
        <ele>245</ele>
        <time>2024-10-29T19:44:47Z</time>
      </trkpt>
      <trkpt lat="44.41864" lon="1.21083">
        <ele>245</ele>
        <time>2024-10-29T19:45:08Z</time>
      </trkpt>
      <trkpt lat="44.41837" lon="1.21294">
        <ele>255</ele>
        <time>2024-10-29T19:48:33Z</time>
      </trkpt>
      <trkpt lat="44.41835" lon="1.21355">
        <ele>258</ele>
        <time>2024-10-29T19:49:31Z</time>
      </trkpt>
      <trkpt lat="44.41825" lon="1.21409">
        <ele>258</ele>
        <time>2024-10-29T19:50:24Z</time>
      </trkpt>
      <trkpt lat="44.41818" lon="1.21539">
        <ele>262</ele>
        <time>2024-10-29T19:52:28Z</time>
      </trkpt>
      <trkpt lat="44.41782" lon="1.21647">
        <ele>259</ele>
        <time>2024-10-29T19:54:22Z</time>
      </trkpt>
      <trkpt lat="44.41766" lon="1.21815">
        <ele>255</ele>
        <time>2024-10-29T19:57:03Z</time>
      </trkpt>
      <trkpt lat="44.41771" lon="1.21856">
        <ele>255</ele>
        <time>2024-10-29T19:57:43Z</time>
      </trkpt>
      <trkpt lat="44.41783" lon="1.21887">
        <ele>254</ele>
        <time>2024-10-29T19:58:17Z</time>
      </trkpt>
      <trkpt lat="44.41788" lon="1.21944">
        <ele>255</ele>
        <time>2024-10-29T19:59:11Z</time>
      </trkpt>
      <trkpt lat="44.41786" lon="1.22002">
        <ele>255</ele>
        <time>2024-10-29T20:00:07Z</time>
      </trkpt>
      <trkpt lat="44.41793" lon="1.22027">
        <ele>255</ele>
        <time>2024-10-29T20:00:32Z</time>
      </trkpt>
      <trkpt lat="44.41794" lon="1.22055">
        <ele>254</ele>
        <time>2024-10-29T20:00:59Z</time>
      </trkpt>
      <trkpt lat="44.41822" lon="1.22191">
        <ele>252</ele>
        <time>2024-10-29T20:03:14Z</time>
      </trkpt>
      <trkpt lat="44.41837" lon="1.22224">
        <ele>252</ele>
        <time>2024-10-29T20:03:51Z</time>
      </trkpt>
      <trkpt lat="44.41835" lon="1.2224">
        <ele>251</ele>
        <time>2024-10-29T20:04:07Z</time>
      </trkpt>
      <trkpt lat="44.41849" lon="1.22311">
        <ele>245</ele>
        <time>2024-10-29T20:05:17Z</time>
      </trkpt>
      <trkpt lat="44.41846" lon="1.22313">
        <ele>245</ele>
        <time>2024-10-29T20:05:21Z</time>
      </trkpt>
      <trkpt lat="44.41843" lon="1.22346">
        <ele>241</ele>
        <time>2024-10-29T20:05:53Z</time>
      </trkpt>
      <trkpt lat="44.41832" lon="1.22391">
        <ele>235</ele>
        <time>2024-10-29T20:06:38Z</time>
      </trkpt>
      <trkpt lat="44.41817" lon="1.22413">
        <ele>231</ele>
        <time>2024-10-29T20:07:07Z</time>
      </trkpt>
      <trkpt lat="44.41807" lon="1.2245">
        <ele>227</ele>
        <time>2024-10-29T20:07:45Z</time>
      </trkpt>
      <trkpt lat="44.41766" lon="1.22514">
        <ele>219</ele>
        <time>2024-10-29T20:09:07Z</time>
      </trkpt>
      <trkpt lat="44.41759" lon="1.22533">
        <ele>217</ele>
        <time>2024-10-29T20:09:27Z</time>
      </trkpt>
      <trkpt lat="44.41759" lon="1.22546">
        <ele>216</ele>
        <time>2024-10-29T20:09:40Z</time>
      </trkpt>
      <trkpt lat="44.41772" lon="1.22585">
        <ele>214</ele>
        <time>2024-10-29T20:10:21Z</time>
      </trkpt>
      <trkpt lat="44.41782" lon="1.22597">
        <ele>213</ele>
        <time>2024-10-29T20:10:38Z</time>
      </trkpt>
      <trkpt lat="44.41821" lon="1.22608">
        <ele>214</ele>
        <time>2024-10-29T20:11:32Z</time>
      </trkpt>
      <trkpt lat="44.41854" lon="1.22593">
        <ele>215</ele>
        <time>2024-10-29T20:12:18Z</time>
      </trkpt>
      <trkpt lat="44.41881" lon="1.2259">
        <ele>215</ele>
        <time>2024-10-29T20:12:54Z</time>
      </trkpt>
      <trkpt lat="44.41891" lon="1.226">
        <ele>212</ele>
        <time>2024-10-29T20:13:10Z</time>
      </trkpt>
      <trkpt lat="44.41889" lon="1.22623">
        <ele>209</ele>
        <time>2024-10-29T20:13:32Z</time>
      </trkpt>
      <trkpt lat="44.41854" lon="1.22664">
        <ele>204</ele>
        <time>2024-10-29T20:14:33Z</time>
      </trkpt>
      <trkpt lat="44.41818" lon="1.22697">
        <ele>203</ele>
        <time>2024-10-29T20:15:31Z</time>
      </trkpt>
      <trkpt lat="44.41791" lon="1.22715">
        <ele>202</ele>
        <time>2024-10-29T20:16:11Z</time>
      </trkpt>
      <trkpt lat="44.41768" lon="1.22776">
        <ele>202</ele>
        <time>2024-10-29T20:17:16Z</time>
      </trkpt>
      <trkpt lat="44.41758" lon="1.22789">
        <ele>204</ele>
        <time>2024-10-29T20:17:35Z</time>
      </trkpt>
      <trkpt lat="44.41684" lon="1.22844">
        <ele>211</ele>
        <time>2024-10-29T20:19:26Z</time>
      </trkpt>
      <trkpt lat="44.41665" lon="1.2285">
        <ele>212</ele>
        <time>2024-10-29T20:19:52Z</time>
      </trkpt>
      <trkpt lat="44.41622" lon="1.2285">
        <ele>211</ele>
        <time>2024-10-29T20:20:50Z</time>
      </trkpt>
      <trkpt lat="44.41579" lon="1.22874">
        <ele>214</ele>
        <time>2024-10-29T20:21:52Z</time>
      </trkpt>
      <trkpt lat="44.41474" lon="1.22999">
        <ele>220</ele>
        <time>2024-10-29T20:24:56Z</time>
      </trkpt>
      <trkpt lat="44.41455" lon="1.23026">
        <ele>221</ele>
        <time>2024-10-29T20:25:32Z</time>
      </trkpt>
      <trkpt lat="44.41438" lon="1.2306">
        <ele>222</ele>
        <time>2024-10-29T20:26:11Z</time>
      </trkpt>
      <trkpt lat="44.4146" lon="1.23079">
        <ele>225.6</ele>
        <time>2024-10-29T20:26:50Z</time>
      </trkpt>
      <trkpt lat="44.41467" lon="1.23087">
        <ele>226.5</ele>
        <time>2024-10-29T20:27:15Z</time>
      </trkpt>
      <trkpt lat="44.41474" lon="1.23094">
        <ele>227.2</ele>
      </trkpt>
      <trkpt lat="44.41495" lon="1.23108">
        <ele>229.4</ele>
        <time>2024-10-29T20:27:52Z</time>
      </trkpt>
      <trkpt lat="44.41512" lon="1.23123">
        <ele>231.7</ele>
        <time>2024-10-29T20:28:14Z</time>
      </trkpt>
      <trkpt lat="44.41524" lon="1.23141">
        <ele>233.5</ele>
        <time>2024-10-29T20:28:27Z</time>
      </trkpt>
      <trkpt lat="44.41539" lon="1.23166">
        <ele>235.6</ele>
        <time>2024-10-29T20:28:37Z</time>
      </trkpt>
      <trkpt lat="44.41555" lon="1.23194">
        <ele>239</ele>
        <time>2024-10-29T20:30:57Z</time>
      </trkpt>
      <trkpt lat="44.41592" lon="1.23246">
        <ele>242.5</ele>
      </trkpt>
      <trkpt lat="44.41532" lon="1.23359">
        <ele>244.7</ele>
        <time>2024-10-29T20:31:50Z</time>
      </trkpt>
    </trkseg>
  </trk>
</gpx>